Weather History for DeKalb, IL

Change the Weather History Date:

Tuesday, October 30, 2012

  Actual Average (KARR) Record (KARR)
Temperature  
Mean Temperature 42 °F 46 °F  
Max Temperature 47 °F 57 °F 74 °F (1999)
Min Temperature 37 °F 35 °F 25 °F (2014)
Degree Days  
Heating Degree Days 23 19  
Month to date heating degree days 435  
Since 1 July heating degree days 588  
Cooling Degree Days 0 0  
Month to date cooling degree days 9  
Year to date cooling degree days 656  
Moisture  
Dew Point 26 °F    
Average Humidity 57    
Maximum Humidity 74    
Minimum Humidity 38    
Precipitation  
Precipitation 0.00 in 0.09 in 1.02 in (2013)
Month to date precipitation 3.04  
Year to date precipitation 31.68  
Sea Level Pressure  
Sea Level Pressure 29.89 in    
Wind  
Wind Speed 17 mph (NNW)    
Max Wind Speed 26 mph    
Max Gust Speed 37 mph    
Visibility 10 miles    
Events      
T = Trace of Precipitation, MM = Missing Value Source: NWS Daily Summary

Daily Weather History Graph

Daily Weather History Graph

Search for Another Location

Airport:

Trip Planner

Search our weather history database for the weather conditions in past years. The results will help you decide how hot, cold, wet, or windy it might be!

Date:

Astronomy

Oct. 30, 2012 Rise Set
Actual Time 7:25 AM CDT 5:50 PM CDT
Civil Twilight 6:56 AM CDT 6:19 PM CDT
Nautical Twilight 6:23 AM CDT 6:52 PM CDT
Astronomical Twilight 5:51 AM CDT 7:24 PM CDT
Moon 6:18 PM CDT (10/30) 8:13 AM CDT (10/30)
Length of Visible Light 11h 23m
Length of Day
10h 25m
Full, 99% of the Moon is Illuminated
Oct 30
Full
Nov 6
Last Quarter
Nov 13
New
Nov 20
First Quarter
Nov 28
Full

Hourly Weather History & Observations

Time (CDT) Temp. Windchill Dew Point Humidity Pressure Visibility Wind Dir Wind Speed Gust Speed Precip Events Conditions
12:15 AM 38.3 °F 30.9 °F 29.3 °F 70% 30.08 in 10.0 mi NNW 11.5 mph - N/A   Clear
12:35 AM 37.8 °F 30.2 °F 29.7 °F 73% 30.07 in 10.0 mi NNW 11.5 mph - N/A   Clear
12:55 AM 38.3 °F 30.9 °F 29.7 °F 71% 30.06 in 10.0 mi NNW 11.5 mph - N/A   Clear
1:15 AM 38.7 °F 29.5 °F 29.3 °F 69% 30.05 in 10.0 mi NNW 17.3 mph 23.0 mph N/A   Clear
1:35 AM 38.3 °F 29.7 °F 29.1 °F 70% 30.05 in 10.0 mi NNW 15.0 mph 24.2 mph N/A   Clear
1:55 AM 38.3 °F 29.0 °F 28.4 °F 68% 30.04 in 10.0 mi NNW 17.3 mph 24.2 mph N/A   Clear
2:15 AM 38.3 °F 29.3 °F 29.1 °F 70% 30.03 in 10.0 mi NNW 16.1 mph 20.7 mph N/A   Clear
2:35 AM 37.4 °F 28.2 °F 28.4 °F 70% 30.02 in 10.0 mi NNW 16.1 mph 20.7 mph N/A   Clear
3:15 AM 37.6 °F 28.4 °F 28.4 °F 69% 30.00 in 10.0 mi NNW 16.1 mph 24.2 mph N/A   Clear
3:35 AM 37.4 °F 27.2 °F 28.4 °F 70% 29.99 in 10.0 mi NNW 19.6 mph 26.5 mph N/A   Clear
3:55 AM 37.6 °F 28.1 °F 28.4 °F 69% 29.99 in 10.0 mi NNW 17.3 mph 28.8 mph N/A   Clear
4:15 AM 37.6 °F 27.7 °F 28.8 °F 70% 29.98 in 10.0 mi NNW 18.4 mph 26.5 mph N/A   Clear
4:35 AM 37.6 °F 27.1 °F 28.8 °F 70% 29.98 in 10.0 mi NNW 20.7 mph 27.6 mph N/A   Clear
4:55 AM 37.6 °F 27.4 °F 29.1 °F 72% 29.97 in 10.0 mi NNW 19.6 mph 26.5 mph N/A   Clear
5:15 AM 37.6 °F 28.1 °F 29.1 °F 72% 29.97 in 10.0 mi NNW 17.3 mph 26.5 mph N/A   Clear
5:35 AM 37.6 °F 27.1 °F 29.1 °F 72% 29.96 in 10.0 mi NNW 20.7 mph 29.9 mph N/A   Clear
5:55 AM 37.6 °F 27.1 °F 29.3 °F 72% 29.96 in 10.0 mi NNW 20.7 mph 28.8 mph N/A   Clear
6:15 AM 37.6 °F 27.4 °F 29.3 °F 72% 29.95 in 10.0 mi NNW 19.6 mph 28.8 mph N/A   Clear
6:35 AM 37.6 °F 26.6 °F 29.7 °F 73% 29.94 in 10.0 mi NNW 23.0 mph 31.1 mph N/A   Clear
6:55 AM 37.6 °F 26.9 °F 29.8 °F 74% 29.93 in 10.0 mi NNW 21.9 mph 32.2 mph N/A   Clear
7:15 AM 37.6 °F 26.1 °F 29.7 °F 73% 29.92 in 10.0 mi NNW 25.3 mph 33.4 mph N/A   Clear
7:35 AM 37.0 °F 25.9 °F 29.5 °F 74% 29.92 in 10.0 mi NNW 23.0 mph 31.1 mph N/A   Clear
8:15 AM 37.6 °F 26.1 °F 29.3 °F 72% 29.92 in 10.0 mi NNW 25.3 mph 32.2 mph N/A   Clear
8:35 AM 37.8 °F 27.1 °F 29.3 °F 72% 29.92 in 10.0 mi NNW 21.9 mph 29.9 mph N/A   Clear
8:55 AM 38.3 °F 27.1 °F 29.1 °F 70% 29.91 in 10.0 mi NNW 25.3 mph 32.2 mph N/A   Clear
9:15 AM 38.8 °F 28.0 °F 28.8 °F 67% 29.90 in 10.0 mi NNW 24.2 mph 36.8 mph N/A   Clear
9:35 AM 39.2 °F 28.5 °F 28.6 °F 66% 29.89 in 10.0 mi NNW 24.2 mph 33.4 mph N/A   Clear
9:55 AM 39.4 °F 28.3 °F 27.7 °F 63% 29.88 in 10.0 mi NNW 26.5 mph 35.7 mph N/A   Clear
10:15 AM 39.6 °F 28.7 °F 27.3 °F 62% 29.88 in 10.0 mi NNW 25.3 mph 33.4 mph N/A   Clear
10:35 AM 40.3 °F 30.4 °F 26.4 °F 58% 29.87 in 10.0 mi NNW 21.9 mph 33.4 mph N/A   Clear
10:55 AM 41.2 °F 31.4 °F 26.1 °F 55% 29.87 in 10.0 mi NNW 23.0 mph 32.2 mph N/A   Clear
11:15 AM 42.8 °F 33.8 °F 25.5 °F 51% 29.87 in 10.0 mi North 21.9 mph 32.2 mph N/A   Clear
11:35 AM 43.7 °F 34.5 °F 24.6 °F 47% 29.86 in 10.0 mi North 24.2 mph 32.2 mph N/A   Clear
11:55 AM 43.9 °F 34.7 °F 24.1 °F 46% 29.85 in 10.0 mi NNW 24.2 mph 35.7 mph N/A   Clear
12:35 PM 45.1 °F 36.0 °F 24.8 °F 45% 29.84 in 10.0 mi NNW 26.5 mph 34.5 mph N/A   Clear
12:55 PM 45.1 °F 36.2 °F 25.0 °F 45% 29.83 in 10.0 mi NNW 25.3 mph 32.2 mph N/A   Clear
1:15 PM 45.5 °F 36.9 °F 24.8 °F 44% 29.83 in 10.0 mi NNW 24.2 mph 33.4 mph N/A   Clear
1:35 PM 45.9 °F 37.2 °F 25.0 °F 44% 29.82 in 10.0 mi NNW 25.3 mph 32.2 mph N/A   Clear
1:55 PM 46.8 °F - 25.0 °F 43% 29.82 in 10.0 mi NNW 21.9 mph 34.5 mph N/A   Clear
2:15 PM 45.9 °F 38.3 °F 23.9 °F 42% 29.82 in 10.0 mi NNW 19.6 mph 31.1 mph N/A   Clear
2:35 PM 47.3 °F - 24.1 °F 40% 29.81 in 10.0 mi NNW 26.5 mph 33.4 mph N/A   Clear
2:55 PM 47.3 °F - 23.9 °F 40% 29.81 in 10.0 mi NNW 20.7 mph 31.1 mph N/A   Clear
3:15 PM 47.3 °F - 23.0 °F 38% 29.81 in 10.0 mi NNW 23.0 mph 29.9 mph N/A   Clear
3:35 PM 46.9 °F - 23.7 °F 40% 29.82 in 10.0 mi NNW 17.3 mph 25.3 mph N/A   Clear
3:55 PM 46.4 °F 39.0 °F 23.0 °F 40% 29.82 in 10.0 mi NNW 19.6 mph 27.6 mph N/A   Clear
4:15 PM 46.4 °F 39.8 °F 23.0 °F 40% 29.82 in 10.0 mi NW 16.1 mph 28.8 mph N/A   Scattered Clouds
4:55 PM 45.3 °F 38.4 °F 22.6 °F 41% 29.83 in 10.0 mi NNW 16.1 mph 31.1 mph N/A   Clear
5:15 PM 45.1 °F 37.9 °F 22.1 °F 40% 29.83 in 10.0 mi NNW 17.3 mph 23.0 mph N/A   Scattered Clouds
5:35 PM 45.1 °F 38.4 °F 21.9 °F 40% 29.83 in 10.0 mi NNW 15.0 mph - N/A   Mostly Cloudy
5:55 PM 44.8 °F 38.3 °F 21.7 °F 40% 29.83 in 10.0 mi NNW 13.8 mph 24.2 mph N/A   Overcast
6:15 PM 45.1 °F 37.9 °F 21.2 °F 39% 29.83 in 10.0 mi NNW 17.3 mph 21.9 mph N/A   Overcast
6:35 PM 44.6 °F 38.1 °F 21.0 °F 39% 29.84 in 10.0 mi NNW 13.8 mph - N/A   Mostly Cloudy
6:55 PM 44.2 °F 38.4 °F 21.7 °F 41% 29.84 in 10.0 mi NNW 11.5 mph - N/A   Overcast
7:15 PM 43.9 °F 38.8 °F 21.2 °F 41% 29.84 in 10.0 mi NNW 9.2 mph - N/A   Mostly Cloudy
7:35 PM 43.0 °F 38.2 °F 21.7 °F 43% 29.85 in 10.0 mi NNW 8.1 mph - N/A   Scattered Clouds
7:55 PM 42.1 °F 36.1 °F 22.5 °F 46% 29.84 in 10.0 mi NNW 10.4 mph - N/A   Scattered Clouds
8:15 PM 41.9 °F 35.9 °F 22.5 °F 46% 29.84 in 10.0 mi NNW 10.4 mph - N/A   Scattered Clouds
8:35 PM 41.4 °F 35.2 °F 22.6 °F 47% 29.84 in 10.0 mi NNW 10.4 mph 16.1 mph N/A   Scattered Clouds
8:55 PM 40.6 °F 34.8 °F 22.8 °F 49% 29.84 in 10.0 mi NNW 9.2 mph - N/A   Scattered Clouds
9:15 PM 39.6 °F 34.7 °F 23.4 °F 52% 29.84 in 10.0 mi NNW 6.9 mph - N/A   Clear
9:55 PM 37.9 °F 32.7 °F 23.7 °F 57% 29.84 in 10.0 mi NNW 6.9 mph - N/A   Clear
10:15 PM 38.1 °F 32.9 °F 23.7 °F 56% 29.84 in 10.0 mi NNW 6.9 mph - N/A   Clear
10:35 PM 37.0 °F 32.4 °F 24.4 °F 60% 29.84 in 10.0 mi NNW 5.8 mph - N/A   Clear
10:55 PM 37.6 °F 30.5 °F 24.8 °F 60% 29.83 in 10.0 mi NNW 10.4 mph - N/A   Clear
11:15 PM 37.6 °F 30.5 °F 24.8 °F 60% 29.82 in 10.0 mi NNW 10.4 mph - N/A   Clear
11:35 PM 38.5 °F 30.3 °F 24.6 °F 58% 29.82 in 10.0 mi NNW 13.8 mph 17.3 mph N/A   Clear